CYDF/YDF METAR and TAF weather

Enter ICAO airport designator
Station Type Date Time Source
CYDF METAR 2022/01/26 07:00 UTC NOAA

CYDF 260700Z 35007KT 3SM -SN OVC023 M04/M04 A2985 RMK SC8 PRESFR SLP110


Station Type Date Time Source
CYDF Decoded METAR 2022/01/26 07:00 UTC NOAA

Deer Lake, Nfld., Canada (CYDF) 49-13N 057-24W 22M
Jan 26, 2022 - 02:00 AM EST / 2022.01.26 0700 UTC
Wind: from the N (350 degrees) at 8 MPH (7 KT):0
Visibility: 3 mile(s):0
Sky conditions: overcast
Weather: light snow
Temperature: 24 F (-4 C)
Windchill: 15 F (-9 C):1
Dew Point: 24 F (-4 C)
Relative Humidity: 100%
Pressure (altimeter): 29.85 in. Hg (1010 hPa)
Pressure tendency: falling rapidly
ob: CYDF 260700Z 35007KT 3SM -SN OVC023 M04/M04 A2985 RMK SC8 PRESFR SLP110
cycle: 7

Station Type Date Time Source
CYDF TAF 2022/01/26 05:21 UTC NOAA

TAF
AMD CYDF 260519Z 2605/2614 03005KT 1SM -SN OVC015
TEMPO 2605/2609 4SM -SN OVC025
FM260900 18010G20KT 4SM -SN OVC020
FM261200 26012G22KT 3SM -SHSN OVC015
RMK NXT FCST BY 260800Z

Example: see airport list